createdAt,value
2022-10-01T00:03:05.798Z,100832.46
2022-10-01T00:06:02.086Z,100839.89
2022-10-01T00:08:51.469Z,100835.77
2022-10-01T00:11:39.812Z,100832.50
2022-10-01T00:14:29.796Z,100836.21
2022-10-01T00:17:19.954Z,100838.28
2022-10-01T00:20:14.722Z,100851.91
2022-10-01T00:23:03.641Z,100851.50
2022-10-01T00:25:53.418Z,100845.55
2022-10-01T00:28:43.606Z,100847.61
2022-10-01T00:31:33.256Z,100845.97
2022-10-01T00:34:22.765Z,100836.53
2022-10-01T00:37:12.124Z,100836.73
2022-10-01T00:40:01.289Z,100832.64
2022-10-01T00:42:50.250Z,100833.88
2022-10-01T00:45:39.652Z,100834.31
2022-10-01T00:48:30.781Z,100826.52
2022-10-01T00:51:20.610Z,100827.75
2022-10-01T00:54:12.808Z,100829.02
2022-10-01T00:57:04.267Z,100830.05
2022-10-01T00:59:56.553Z,100827.80
2022-10-01T01:02:45.161Z,100830.91
2022-10-01T01:05:34.423Z,100834.02
2022-10-01T01:08:23.382Z,100829.09
2022-10-01T01:11:19.753Z,100824.17
2022-10-01T01:14:18.650Z,100821.92
2022-10-01T01:17:14.885Z,100818.64
2022-10-01T01:20:17.899Z,100825.42
2022-10-01T01:23:22.861Z,100829.33
2022-10-01T01:26:22.882Z,100829.98
2022-10-01T01:29:20.534Z,100826.89
2022-10-01T01:32:18.002Z,100831.02
2022-10-01T01:35:11.675Z,100828.77
2022-10-01T01:38:05.959Z,100818.50
2022-10-01T01:40:57.702Z,100826.95
2022-10-01T01:43:48.796Z,100839.09
2022-10-01T01:46:42.010Z,100837.69
2022-10-01T01:49:31.013Z,100828.22
2022-10-01T01:52:20.566Z,100825.97
2022-10-01T01:55:11.134Z,100825.58
2022-10-01T01:58:01.196Z,100849.03
2022-10-01T02:00:52.409Z,100857.47
2022-10-01T02:03:41.341Z,100850.67
2022-10-01T02:06:43.000Z,100846.58
2022-10-01T02:09:36.717Z,100844.33
2022-10-01T02:12:38.538Z,100835.89
2022-10-01T02:15:36.496Z,100838.79
2022-10-01T02:18:30.560Z,100841.27
2022-10-01T02:21:23.621Z,100833.67
2022-10-01T02:24:21.989Z,100842.10
2022-10-01T02:27:18.556Z,100836.34
2022-10-01T02:30:11.132Z,100839.42
2022-10-01T02:33:01.804Z,100836.98
2022-10-01T02:35:53.597Z,100833.88
2022-10-01T02:38:45.022Z,100834.30
2022-10-01T02:41:36.694Z,100832.88
2022-10-01T02:44:31.829Z,100826.08
2022-10-01T02:47:23.942Z,100822.19
2022-10-01T02:50:13.786Z,100821.57
2022-10-01T02:53:07.218Z,100828.35
2022-10-01T02:55:58.641Z,100829.60
2022-10-01T02:58:48.447Z,100832.47
2022-10-01T03:01:38.206Z,100831.23
2022-10-01T03:04:27.565Z,100840.69
2022-10-01T03:07:16.555Z,100845.41
2022-10-01T03:10:08.282Z,100854.86
2022-10-01T03:12:57.133Z,100862.25
2022-10-01T03:15:47.418Z,100859.95
2022-10-01T03:18:35.938Z,100862.84
2022-10-01T03:21:25.449Z,100852.35
2022-10-01T03:24:14.410Z,100861.61
2022-10-01T03:27:02.960Z,100858.31
2022-10-01T03:29:52.126Z,100855.03
2022-10-01T03:32:40.866Z,100856.86
2022-10-01T03:35:29.634Z,100856.25
2022-10-01T03:38:19.003Z,100849.48
2022-10-01T03:41:07.962Z,100855.81
2022-10-01T03:44:00.347Z,100858.89
2022-10-01T03:46:49.977Z,100853.95
2022-10-01T03:49:38.936Z,100849.64
2022-10-01T03:52:27.690Z,100853.55
2022-10-01T03:55:16.651Z,100855.39
2022-10-01T03:58:05.818Z,100847.78
2022-10-01T04:00:54.779Z,100848.00
2022-10-01T04:03:44.146Z,100856.41
2022-10-01T04:06:33.310Z,100856.60
2022-10-01T04:09:21.858Z,100860.51
2022-10-01T04:12:10.615Z,100860.91
2022-10-01T04:14:59.600Z,100868.30
2022-10-01T04:17:48.329Z,100875.67
2022-10-01T04:20:38.928Z,100883.06
2022-10-01T04:23:28.094Z,100878.75
2022-10-01T04:26:18.660Z,100890.44
2022-10-01T04:29:07.649Z,100890.63
2022-10-01T04:31:57.819Z,100888.17
2022-10-01T04:34:52.328Z,100884.88
2022-10-01T04:37:41.083Z,100883.23
2022-10-01T04:40:29.837Z,100881.37
2022-10-01T04:43:18.801Z,100885.06
2022-10-01T04:46:07.551Z,100889.38
2022-10-01T04:48:56.717Z,100887.73
2022-10-01T04:51:45.881Z,100895.55
2022-10-01T04:54:35.044Z,100893.69
2022-10-01T04:57:23.595Z,100892.48
2022-10-01T05:00:16.651Z,100898.45
2022-10-01T05:03:18.539Z,100903.56
2022-10-01T05:06:09.930Z,100904.19
2022-10-01T05:08:58.696Z,100905.44
2022-10-01T05:11:51.741Z,100897.87
2022-10-01T05:14:40.496Z,100899.91
2022-10-01T05:17:33.517Z,100904.66
2022-10-01T05:20:25.488Z,100904.89
2022-10-01T05:23:14.341Z,100918.45
2022-10-01T05:26:05.348Z,100924.00
2022-10-01T05:28:53.574Z,100927.33
2022-10-01T05:31:43.890Z,100916.86
2022-10-01T05:34:32.635Z,100923.69
2022-10-01T05:37:21.390Z,100933.34
2022-10-01T05:40:11.193Z,100918.98
2022-10-01T05:43:01.278Z,100939.73
2022-10-01T05:45:50.756Z,100938.70
2022-10-01T05:48:39.896Z,100938.49
2022-10-01T05:51:29.696Z,100943.03
2022-10-01T05:54:19.245Z,100946.72
2022-10-01T05:57:09.211Z,100942.16
2022-10-01T05:59:57.985Z,100944.80
2022-10-01T06:02:52.110Z,100933.69
2022-10-01T06:05:41.024Z,100908.73
2022-10-01T06:08:29.570Z,100914.67
2022-10-01T06:11:18.738Z,100920.57
2022-10-01T06:14:07.492Z,100920.25
2022-10-01T06:16:56.129Z,100919.31
2022-10-01T06:19:45.206Z,100923.10
2022-10-01T06:22:33.756Z,100920.33
2022-10-01T06:25:22.924Z,100913.84
2022-10-01T06:28:14.317Z,100916.44
2022-10-01T06:31:04.118Z,100914.39
2022-10-01T06:33:52.669Z,100896.88
2022-10-01T06:36:42.038Z,100881.67
2022-10-01T06:39:30.587Z,100879.88
2022-10-01T06:42:19.750Z,100878.06
2022-10-01T06:45:11.053Z,100869.04
2022-10-01T06:48:02.586Z,100882.31
2022-10-01T06:50:52.777Z,100879.19
2022-10-01T06:53:40.917Z,100876.31
2022-10-01T06:56:30.083Z,100872.61
2022-10-01T06:59:19.041Z,100880.68
2022-10-01T07:02:11.028Z,100891.21
2022-10-01T07:04:59.847Z,100891.83
2022-10-01T07:07:48.588Z,100889.70
2022-10-01T07:10:37.759Z,100876.16
2022-10-01T07:13:26.300Z,100881.65
2022-10-01T07:16:15.503Z,100876.11
2022-10-01T07:19:04.312Z,100876.03
2022-10-01T07:21:52.975Z,100884.28
2022-10-01T07:24:41.731Z,100888.75
2022-10-01T07:27:30.692Z,100891.88
2022-10-01T07:30:20.243Z,100888.80
2022-10-01T07:33:09.018Z,100881.03
2022-10-01T07:35:59.837Z,100882.62
2022-10-01T07:38:50.831Z,100878.83
2022-10-01T07:41:39.790Z,100873.92
2022-10-01T07:44:29.782Z,100860.87
2022-10-01T07:47:18.120Z,100868.90
2022-10-01T07:50:08.937Z,100852.05
2022-10-01T07:52:58.901Z,100846.79
2022-10-01T07:55:48.083Z,100849.06
2022-10-01T07:58:37.234Z,100846.77
2022-10-01T08:01:26.040Z,100841.71
2022-10-01T08:04:33.386Z,100839.70
2022-10-01T08:07:21.935Z,100844.95
2022-10-01T08:10:11.509Z,100845.31
2022-10-01T08:13:08.409Z,100854.89
2022-10-01T08:15:57.415Z,100851.96
2022-10-01T08:18:45.967Z,100848.54
2022-10-01T08:21:35.973Z,100839.38
2022-10-01T08:24:25.117Z,100832.89
2022-10-01T08:27:14.077Z,100834.25
2022-10-01T08:30:04.059Z,100831.55
2022-10-01T08:32:57.523Z,100826.69
2022-10-01T08:35:46.697Z,100830.20
2022-10-01T08:38:36.062Z,100828.00
2022-10-01T08:41:43.250Z,100814.39
2022-10-01T08:44:36.888Z,100804.87
2022-10-01T08:47:34.866Z,100801.81
2022-10-01T08:50:35.318Z,100798.48
2022-10-01T08:53:33.891Z,100791.34
2022-10-01T08:56:28.157Z,100790.72
2022-10-01T08:59:34.558Z,100787.92
2022-10-01T09:02:26.081Z,100781.28
2022-10-01T09:05:21.758Z,100781.45
2022-10-01T09:08:20.892Z,100775.62
2022-10-01T09:11:23.304Z,100776.05
2022-10-01T09:14:29.738Z,100779.19
2022-10-01T09:17:29.915Z,100766.55
2022-10-01T09:20:25.376Z,100764.75
2022-10-01T09:23:23.431Z,100760.22
2022-10-01T09:26:13.638Z,100771.74
2022-10-01T09:29:03.623Z,100769.68
2022-10-01T09:31:53.831Z,100767.09
2022-10-01T09:34:44.581Z,100761.70
2022-10-01T09:37:42.497Z,100754.42
2022-10-01T09:40:36.194Z,100758.02
2022-10-01T09:43:28.685Z,100760.01
2022-10-01T09:46:19.680Z,100759.52
2022-10-01T09:49:15.628Z,100770.77
2022-10-01T09:52:10.717Z,100766.23
2022-10-01T09:55:05.154Z,100757.08
2022-10-01T09:57:59.656Z,100756.88
2022-10-01T10:00:51.031Z,100745.77
2022-10-01T10:03:39.741Z,100747.00
2022-10-01T10:06:31.980Z,100740.83
2022-10-01T10:09:28.456Z,100738.20
2022-10-01T10:12:29.665Z,100734.15
2022-10-01T10:15:21.511Z,100719.77
2022-10-01T10:18:19.270Z,100721.28
2022-10-01T10:21:18.931Z,100733.38
2022-10-01T10:24:26.338Z,100726.42
2022-10-01T10:27:26.265Z,100727.31
2022-10-01T10:30:18.355Z,100730.09
2022-10-01T10:33:07.722Z,100717.31
2022-10-01T10:36:04.613Z,100718.18
2022-10-01T10:38:53.689Z,100709.55
2022-10-01T10:41:47.031Z,100705.25
2022-10-01T10:44:39.129Z,100708.34
2022-10-01T10:47:28.704Z,100694.58
2022-10-01T10:50:29.381Z,100694.77
2022-10-01T10:53:22.602Z,100698.79
2022-10-01T10:56:22.134Z,100685.61
2022-10-01T10:59:11.819Z,100691.58
2022-10-01T11:02:03.130Z,100683.86
2022-10-01T11:04:51.137Z,100682.74
2022-10-01T11:07:45.537Z,100681.45
2022-10-01T11:10:46.264Z,100683.70
2022-10-01T11:14:02.671Z,100677.73
2022-10-01T11:17:14.300Z,100675.62
2022-10-01T11:20:22.144Z,100670.95
2022-10-01T11:23:30.103Z,100666.60
2022-10-01T11:26:29.548Z,100666.93
2022-10-01T11:29:30.481Z,100657.61
2022-10-01T11:32:28.810Z,100645.84
2022-10-01T11:35:49.003Z,100640.19
2022-10-01T11:38:54.342Z,100641.30
2022-10-01T11:41:47.197Z,100626.81
2022-10-01T11:44:42.295Z,100620.55
2022-10-01T11:47:36.126Z,100623.59
2022-10-01T11:50:28.517Z,100614.59
2022-10-01T11:53:24.215Z,100610.24
2022-10-01T11:56:36.465Z,100618.75
2022-10-01T11:59:33.269Z,100608.77
2022-10-01T12:02:27.962Z,100608.44
2022-10-01T12:05:19.924Z,100596.71
2022-10-01T12:08:16.911Z,100588.51
2022-10-01T12:11:17.948Z,100583.53
2022-10-01T12:14:13.091Z,100577.58
2022-10-01T12:17:11.562Z,100574.84
2022-10-01T12:20:02.072Z,100569.53
2022-10-01T12:22:52.043Z,100549.27
2022-10-01T12:25:51.253Z,100540.44
2022-10-01T12:28:51.541Z,100538.19
2022-10-01T12:31:50.726Z,100531.33
2022-10-01T12:34:53.284Z,100535.83
2022-10-01T12:38:00.138Z,100529.42
2022-10-01T12:40:58.109Z,100522.98
2022-10-01T12:44:32.125Z,100538.45
2022-10-01T12:47:35.826Z,100526.05
2022-10-01T12:50:35.166Z,100525.75
2022-10-01T12:53:36.690Z,100530.59
2022-10-01T12:56:32.489Z,100520.77
2022-10-01T12:59:35.439Z,100512.56
2022-10-01T13:02:52.111Z,100508.22
2022-10-01T13:05:50.606Z,100496.78
2022-10-01T13:08:53.789Z,100489.22
2022-10-01T13:12:02.613Z,100484.05
2022-10-01T13:14:56.494Z,100476.67
2022-10-01T13:17:52.747Z,100469.59
2022-10-01T13:20:53.846Z,100470.72
2022-10-01T13:23:50.220Z,100453.81
2022-10-01T13:26:47.353Z,100459.29
2022-10-01T13:29:46.885Z,100453.00
2022-10-01T13:32:38.186Z,100459.11
2022-10-01T13:35:34.411Z,100446.56
2022-10-01T13:38:39.681Z,100444.31
2022-10-01T13:41:32.771Z,100445.44
2022-10-01T13:44:26.165Z,100440.60
2022-10-01T13:47:20.075Z,100425.66
2022-10-01T13:50:24.817Z,100420.83
2022-10-01T13:53:20.827Z,100428.52
2022-10-01T13:56:12.429Z,100434.14
2022-10-01T13:59:01.078Z,100425.59
2022-10-01T14:01:49.855Z,100423.02
2022-10-01T14:04:40.636Z,100419.61
2022-10-01T14:07:36.354Z,100428.30
2022-10-01T14:10:34.037Z,100429.56
2022-10-01T14:13:41.921Z,100410.09
2022-10-01T14:16:36.260Z,100401.22
2022-10-01T14:19:27.398Z,100402.48
2022-10-01T14:22:30.432Z,100385.12
2022-10-01T14:25:30.060Z,100369.66
2022-10-01T14:28:39.094Z,100369.80
2022-10-01T14:31:39.718Z,100370.25
2022-10-01T14:34:53.636Z,100370.72
2022-10-01T14:37:41.871Z,100365.39
2022-10-01T14:40:38.554Z,100354.61
2022-10-01T14:43:29.012Z,100344.63
2022-10-01T14:46:18.780Z,100342.85
2022-10-01T14:49:17.713Z,100332.42
2022-10-01T14:52:16.656Z,100334.66
2022-10-01T14:55:12.918Z,100333.98
2022-10-01T14:58:01.872Z,100343.42
2022-10-01T15:00:53.274Z,100344.67
2022-10-01T15:03:43.488Z,100339.68
2022-10-01T15:06:42.890Z,100337.05
2022-10-01T15:09:34.309Z,100337.98
2022-10-01T15:12:24.081Z,100333.47
2022-10-01T15:15:26.590Z,100335.50
2022-10-01T15:18:17.361Z,100328.56
2022-10-01T15:21:08.569Z,100322.45
2022-10-01T15:23:57.967Z,100307.83
2022-10-01T15:26:48.967Z,100303.28
2022-10-01T15:29:39.674Z,100290.59
2022-10-01T15:32:29.133Z,100296.17
2022-10-01T15:35:20.519Z,100294.69
2022-10-01T15:38:11.453Z,100285.81
2022-10-01T15:41:26.781Z,100287.02
2022-10-01T15:44:46.817Z,100267.57
2022-10-01T15:47:37.441Z,100265.91
2022-10-01T15:50:31.858Z,100254.92
2022-10-01T15:53:22.792Z,100217.52
2022-10-01T15:56:14.544Z,100202.20
2022-10-01T15:59:16.393Z,100217.66
2022-10-01T16:02:18.243Z,100220.00
2022-10-01T16:05:07.224Z,100223.42
2022-10-01T16:07:58.167Z,100224.47
2022-10-01T16:10:47.556Z,100209.14
2022-10-01T16:13:40.857Z,100192.42
2022-10-01T16:16:30.058Z,100172.47
2022-10-01T16:19:28.753Z,100160.69
2022-10-01T16:22:25.924Z,100176.13
2022-10-01T16:25:32.335Z,100193.22
2022-10-01T16:28:28.061Z,100190.20
2022-10-01T16:31:16.334Z,100180.84
2022-10-01T16:34:12.626Z,100177.71
2022-10-01T16:37:02.445Z,100192.00
2022-10-01T16:39:51.226Z,100206.28
2022-10-01T16:42:40.837Z,100182.19
2022-10-01T16:45:35.003Z,100173.61
2022-10-01T16:48:24.698Z,100184.06
2022-10-01T16:51:13.194Z,100172.74
2022-10-01T16:54:02.007Z,100148.69
2022-10-01T16:56:51.374Z,100129.53
2022-10-01T16:59:40.747Z,100123.68
2022-10-01T17:02:29.591Z,100146.91
2022-10-01T17:05:21.816Z,100153.80
2022-10-01T17:08:11.468Z,100149.86
2022-10-01T17:11:02.888Z,100152.14
2022-10-01T17:13:51.894Z,100150.88
2022-10-01T17:16:40.419Z,100146.11
2022-10-01T17:19:29.402Z,100153.78
2022-10-01T17:22:18.366Z,100157.97
2022-10-01T17:25:14.100Z,100145.03
2022-10-01T17:28:05.313Z,100148.11
2022-10-01T17:30:54.256Z,100149.55
2022-10-01T17:33:43.626Z,100162.96
2022-10-01T17:36:34.718Z,100158.18
2022-10-01T17:39:23.185Z,100148.77
2022-10-01T17:42:14.498Z,100143.70
2022-10-01T17:45:04.613Z,100140.53
2022-10-01T17:47:54.165Z,100128.10
2022-10-01T17:50:44.323Z,100109.45
2022-10-01T17:53:38.179Z,100110.34
2022-10-01T17:56:31.194Z,100111.18
2022-10-01T17:59:21.062Z,100101.49
2022-10-01T18:02:36.655Z,100108.88
2022-10-01T18:05:20.290Z,100097.27
2022-10-01T18:08:08.842Z,100098.15
2022-10-01T18:11:04.934Z,100099.30
2022-10-01T18:13:53.108Z,100092.31
2022-10-01T18:16:42.155Z,100090.74
2022-10-01T18:19:52.891Z,100088.08
2022-10-01T18:22:40.459Z,100064.33
2022-10-01T18:25:29.215Z,100050.80
2022-10-01T18:28:18.652Z,100029.47
2022-10-01T18:31:19.460Z,100053.87
2022-10-01T18:34:19.037Z,100055.01
2022-10-01T18:37:16.343Z,100057.23
2022-10-01T18:40:11.493Z,100054.04
2022-10-01T18:43:05.166Z,100050.84
2022-10-01T18:46:10.585Z,100055.77
2022-10-01T18:49:18.107Z,100057.19
2022-10-01T18:52:19.356Z,100061.81
2022-10-01T18:55:31.845Z,100059.14
2022-10-01T18:58:38.853Z,100066.75
2022-10-01T19:01:37.187Z,100068.69
2022-10-01T19:04:44.008Z,100075.45
2022-10-01T19:07:48.329Z,100067.92
2022-10-01T19:10:43.002Z,100052.81
2022-10-01T19:13:39.561Z,100040.70
2022-10-01T19:16:44.315Z,100043.42
2022-10-01T19:19:41.239Z,100059.66
2022-10-01T19:22:50.476Z,100059.66
2022-10-01T19:25:46.833Z,100052.66
2022-10-01T19:28:53.783Z,100049.97
2022-10-01T19:31:50.983Z,100044.88
2022-10-01T19:34:46.456Z,100039.48
2022-10-01T19:37:41.022Z,100040.30
2022-10-01T19:40:34.983Z,100041.92
2022-10-01T19:43:30.054Z,100026.56
2022-10-01T19:46:23.221Z,100024.64
2022-10-01T19:49:19.432Z,100025.19
2022-10-01T19:52:13.780Z,100019.54
2022-10-01T19:55:02.553Z,100022.25
2022-10-01T19:57:52.337Z,100026.30
2022-10-01T20:00:46.806Z,100019.82
2022-10-01T20:03:39.534Z,100015.79
2022-10-01T20:06:33.894Z,100006.08
2022-10-01T20:09:27.038Z,100013.64
2022-10-01T20:12:26.220Z,100010.66
2022-10-01T20:15:26.444Z,100030.92
2022-10-01T20:18:28.131Z,100044.67
2022-10-01T20:21:30.616Z,100036.86
2022-10-01T20:24:37.497Z,100063.03
2022-10-01T20:27:37.167Z,100075.45
2022-10-01T20:30:27.755Z,100084.63
2022-10-01T20:33:29.016Z,100053.31
2022-10-01T20:36:24.118Z,100037.95
2022-10-01T20:39:19.579Z,100022.56
2022-10-01T20:42:16.168Z,100026.87
2022-10-01T20:45:15.366Z,100026.34
2022-10-01T20:48:10.382Z,100025.80
2022-10-01T20:51:06.194Z,100033.09
2022-10-01T20:54:03.142Z,100023.64
2022-10-01T20:57:13.196Z,100023.64
2022-10-01T21:00:14.235Z,100041.44
2022-10-01T21:03:11.858Z,100068.40
2022-10-01T21:06:05.262Z,100083.99
2022-10-01T21:08:57.375Z,100087.50
2022-10-01T21:11:52.333Z,100107.44
2022-10-01T21:14:45.843Z,100076.69
2022-10-01T21:17:45.381Z,100074.53
2022-10-01T21:20:53.686Z,100038.64
2022-10-01T21:24:00.518Z,100032.98
2022-10-01T21:27:01.712Z,100079.85
2022-10-01T21:30:02.773Z,100088.16
2022-10-01T21:33:15.463Z,100089.22
2022-10-01T21:36:11.374Z,100080.04
2022-10-01T21:39:12.438Z,100078.94
2022-10-01T21:42:14.300Z,100060.89
2022-10-01T21:45:25.222Z,100058.44
2022-10-01T21:48:28.252Z,100076.20
2022-10-01T21:51:31.973Z,100096.65
2022-10-01T21:54:54.722Z,100101.20
2022-10-01T21:57:52.878Z,100089.34
2022-10-01T22:00:41.922Z,100078.02
2022-10-01T22:03:39.587Z,100088.20
2022-10-01T22:06:35.663Z,100102.73
2022-10-01T22:09:35.179Z,100092.48
2022-10-01T22:12:27.428Z,100077.65
2022-10-01T22:15:24.966Z,100072.27
2022-10-01T22:18:20.585Z,100042.09
2022-10-01T22:21:12.762Z,100029.16
2022-10-01T22:24:06.584Z,100015.70
2022-10-01T22:26:59.819Z,99994.98
2022-10-01T22:29:51.900Z,99992.53
2022-10-01T22:32:45.749Z,99989.84
2022-10-01T22:35:40.783Z,99986.08
2022-10-01T22:38:35.750Z,100003.06
2022-10-01T22:41:31.385Z,100013.83
2022-10-01T22:44:23.307Z,100010.59
2022-10-01T22:47:45.435Z,100003.58
2022-10-01T22:50:49.757Z,99999.81
2022-10-01T22:53:55.714Z,99995.50
2022-10-01T22:56:52.039Z,99988.50
2022-10-01T22:59:52.065Z,99965.06
2022-10-01T23:02:43.688Z,99945.43
2022-10-01T23:05:46.368Z,99923.61
2022-10-01T23:08:43.518Z,99906.39
2022-10-01T23:11:42.313Z,99908.01
2022-10-01T23:14:48.685Z,99912.32
2022-10-01T23:17:42.763Z,99915.02
2022-10-01T23:20:34.087Z,99950.84
2022-10-01T23:23:31.341Z,99968.06
2022-10-01T23:26:36.417Z,99947.05
2022-10-01T23:29:46.728Z,99966.69
2022-10-01T23:33:01.901Z,99947.30
2022-10-01T23:36:00.514Z,99935.19
2022-10-01T23:39:20.577Z,99932.74
2022-10-01T23:42:20.282Z,99935.44
2022-10-01T23:45:19.981Z,99935.71
2022-10-01T23:48:15.023Z,99947.27
2022-10-01T23:51:08.128Z,99935.16
2022-10-01T23:54:04.835Z,99935.16
2022-10-01T23:56:57.850Z,99924.40
2022-10-01T23:59:53.063Z,99911.19
